createdAt,value
2018-09-25T00:01:41.793Z,69.63
2018-09-25T00:04:15.824Z,70.13
2018-09-25T00:06:49.980Z,70.43
2018-09-25T00:09:23.877Z,70.01
2018-09-25T00:11:58.170Z,70.22
2018-09-25T00:14:32.220Z,71.27
2018-09-25T00:17:06.327Z,71.51
2018-09-25T00:19:40.406Z,71.47
2018-09-25T00:22:15.647Z,71.63
2018-09-25T00:24:49.605Z,71.02
2018-09-25T00:27:23.692Z,71.03
2018-09-25T00:29:57.985Z,71.19
2018-09-25T00:32:32.007Z,71.43
2018-09-25T00:35:05.938Z,71.35
2018-09-25T00:37:40.120Z,71.62
2018-09-25T00:40:14.212Z,72.29
2018-09-25T00:42:48.990Z,72.14
2018-09-25T00:45:23.357Z,72.47
2018-09-25T00:47:57.641Z,72.73
2018-09-25T00:50:32.332Z,72.95
2018-09-25T00:53:06.318Z,72.65
2018-09-25T00:55:40.961Z,72.86
2018-09-25T00:58:15.897Z,73.07
2018-09-25T01:00:50.060Z,73.34
2018-09-25T01:03:24.221Z,73.73
2018-09-25T01:05:58.336Z,74.20
2018-09-25T01:08:32.319Z,74.42
2018-09-25T01:11:07.321Z,74.59
2018-09-25T01:13:42.249Z,74.79
2018-09-25T01:16:16.231Z,74.19
2018-09-25T01:18:50.457Z,74.30
2018-09-25T01:21:24.282Z,74.30
2018-09-25T01:23:58.250Z,74.31
2018-09-25T01:26:32.403Z,74.64
2018-09-25T01:29:06.492Z,74.06
2018-09-25T01:31:40.646Z,74.17
2018-09-25T01:34:14.860Z,74.20
2018-09-25T01:36:48.833Z,74.83
2018-09-25T01:39:22.937Z,74.98
2018-09-25T01:41:57.791Z,74.57
2018-09-25T01:44:32.622Z,74.21
2018-09-25T01:47:06.741Z,75.05
2018-09-25T01:49:40.730Z,74.84
2018-09-25T01:52:16.175Z,74.33
2018-09-25T01:54:51.001Z,74.34
2018-09-25T01:57:25.217Z,73.75
2018-09-25T01:59:59.739Z,74.38
2018-09-25T02:02:34.753Z,74.83
2018-09-25T02:05:08.689Z,75.18
2018-09-25T02:07:42.922Z,75.36
2018-09-25T02:10:17.625Z,75.30
2018-09-25T02:12:51.574Z,74.99
2018-09-25T02:15:26.730Z,75.13
2018-09-25T02:18:01.855Z,74.67
2018-09-25T02:20:35.895Z,75.12
2018-09-25T02:23:09.887Z,74.64
2018-09-25T02:25:44.756Z,74.12
2018-09-25T02:28:20.765Z,74.23
2018-09-25T02:30:55.406Z,73.54
2018-09-25T02:33:30.492Z,73.62
2018-09-25T02:36:05.663Z,74.45
2018-09-25T02:38:39.863Z,73.81
2018-09-25T02:41:14.124Z,73.80
2018-09-25T02:43:48.078Z,74.20
2018-09-25T02:46:22.060Z,73.99
2018-09-25T02:48:56.055Z,73.81
2018-09-25T02:51:37.415Z,73.58
2018-09-25T02:54:12.024Z,73.89
2018-09-25T02:56:46.459Z,73.90
2018-09-25T02:59:20.863Z,73.55
2018-09-25T03:01:55.006Z,73.89
2018-09-25T03:04:29.098Z,73.49
2018-09-25T03:07:03.599Z,74.15
2018-09-25T03:09:37.844Z,74.04
2018-09-25T03:12:11.818Z,74.90
2018-09-25T03:14:46.635Z,74.50
2018-09-25T03:17:20.884Z,75.24
2018-09-25T03:19:54.943Z,74.96
2018-09-25T03:22:30.520Z,74.10
2018-09-25T03:25:04.530Z,74.40
2018-09-25T03:27:39.871Z,74.66
2018-09-25T03:30:13.956Z,74.24
2018-09-25T03:32:48.284Z,73.85
2018-09-25T03:35:22.929Z,74.46
2018-09-25T03:37:57.762Z,73.91
2018-09-25T03:40:32.081Z,73.98
2018-09-25T03:43:06.197Z,74.33
2018-09-25T03:45:41.224Z,74.66
2018-09-25T03:48:15.095Z,74.56
2018-09-25T03:50:49.336Z,74.33
2018-09-25T03:53:23.320Z,74.20
2018-09-25T03:55:57.726Z,73.75
2018-09-25T03:58:31.877Z,74.69
2018-09-25T04:01:06.845Z,75.15
2018-09-25T04:03:41.402Z,74.23
2018-09-25T04:06:15.497Z,74.62
2018-09-25T04:08:49.410Z,74.11
2018-09-25T04:11:23.748Z,74.70
2018-09-25T04:13:58.154Z,75.41
2018-09-25T04:16:32.924Z,76.31
2018-09-25T04:19:07.375Z,76.51
2018-09-25T04:21:42.906Z,77.12
2018-09-25T04:24:18.217Z,77.09
2018-09-25T04:26:52.805Z,77.21
2018-09-25T04:29:27.726Z,77.84
2018-09-25T04:32:02.742Z,77.67
2018-09-25T04:34:36.925Z,77.26
2018-09-25T04:37:11.093Z,77.38
2018-09-25T04:39:45.551Z,77.21
2018-09-25T04:42:19.956Z,76.96
2018-09-25T04:44:54.478Z,77.02
2018-09-25T04:47:28.767Z,76.19
2018-09-25T04:50:03.288Z,76.49
2018-09-25T04:52:37.262Z,75.89
2018-09-25T04:55:11.343Z,75.96
2018-09-25T04:57:46.031Z,75.94
2018-09-25T05:00:20.426Z,75.36
2018-09-25T05:02:54.777Z,75.71
2018-09-25T05:05:28.685Z,75.75
2018-09-25T05:08:02.846Z,76.42
2018-09-25T05:10:36.714Z,75.97
2018-09-25T05:13:11.635Z,76.54
2018-09-25T05:15:45.560Z,76.31
2018-09-25T05:18:19.455Z,76.27
2018-09-25T05:20:53.725Z,76.19
2018-09-25T05:23:27.938Z,76.39
2018-09-25T05:26:01.752Z,75.80
2018-09-25T05:28:35.569Z,75.92
2018-09-25T05:31:09.782Z,76.16
2018-09-25T05:33:45.219Z,77.02
2018-09-25T05:36:19.726Z,76.72
2018-09-25T05:38:54.161Z,76.40
2018-09-25T05:41:28.348Z,76.57
2018-09-25T05:44:02.615Z,76.66
2018-09-25T05:46:36.978Z,76.55
2018-09-25T05:49:11.268Z,76.09
2018-09-25T05:51:46.172Z,76.40
2018-09-25T05:54:20.839Z,76.09
2018-09-25T05:56:55.778Z,76.22
2018-09-25T05:59:29.680Z,75.94
2018-09-25T06:02:04.013Z,75.59
2018-09-25T06:04:38.418Z,75.41
2018-09-25T06:07:13.730Z,76.20
2018-09-25T06:09:47.735Z,75.91
2018-09-25T06:12:21.901Z,75.50
2018-09-25T06:14:56.226Z,75.41
2018-09-25T06:17:30.114Z,75.52
2018-09-25T06:20:04.543Z,74.91
2018-09-25T06:22:39.358Z,75.13
2018-09-25T06:25:13.368Z,74.84
2018-09-25T06:27:48.005Z,75.05
2018-09-25T06:30:22.556Z,74.65
2018-09-25T06:32:57.186Z,74.16
2018-09-25T06:35:31.682Z,74.75
2018-09-25T06:38:06.743Z,74.64
2018-09-25T06:40:40.766Z,74.42
2018-09-25T06:43:15.595Z,74.44
2018-09-25T06:45:49.863Z,74.00
2018-09-25T06:48:23.929Z,73.18
2018-09-25T06:50:58.668Z,73.96
2018-09-25T06:53:33.641Z,73.21
2018-09-25T06:56:08.510Z,73.25
2018-09-25T06:58:43.406Z,71.52
2018-09-25T07:01:17.589Z,71.52
2018-09-25T07:03:51.806Z,70.65
2018-09-25T07:06:27.092Z,69.06
2018-09-25T07:09:01.911Z,67.60
2018-09-25T07:11:37.232Z,67.74
2018-09-25T07:14:13.362Z,66.92
2018-09-25T07:16:47.404Z,66.07
2018-09-25T07:19:22.318Z,66.26
2018-09-25T07:21:56.410Z,66.90
2018-09-25T07:24:30.619Z,64.97
2018-09-25T07:27:05.751Z,64.97
2018-09-25T07:29:40.740Z,65.04
2018-09-25T07:32:15.304Z,65.61
2018-09-25T07:34:50.304Z,65.76
2018-09-25T07:37:25.171Z,66.24
2018-09-25T07:39:59.924Z,66.39
2018-09-25T07:42:33.885Z,67.02
2018-09-25T07:45:08.228Z,67.06
2018-09-25T07:47:42.417Z,67.00
2018-09-25T07:50:16.320Z,66.17
2018-09-25T07:52:51.911Z,65.47
2018-09-25T07:55:27.009Z,64.99
2018-09-25T07:58:02.506Z,63.33
2018-09-25T08:00:36.612Z,63.45
2018-09-25T08:03:11.070Z,62.84
2018-09-25T08:05:47.365Z,62.71
2018-09-25T08:08:23.486Z,60.90
2018-09-25T08:10:59.237Z,61.60
2018-09-25T08:13:34.035Z,62.49
2018-09-25T08:16:08.458Z,60.67
2018-09-25T08:18:43.510Z,60.88
2018-09-25T08:21:18.141Z,62.86
2018-09-25T08:23:52.260Z,60.40
2018-09-25T08:26:26.184Z,60.74
2018-09-25T08:29:00.203Z,61.03
2018-09-25T08:31:34.300Z,61.08
2018-09-25T08:34:08.417Z,60.56
2018-09-25T08:36:42.616Z,59.71
2018-09-25T08:39:17.327Z,59.87
2018-09-25T08:41:51.299Z,58.20
2018-09-25T08:44:25.605Z,57.79
2018-09-25T08:46:59.542Z,58.06
2018-09-25T08:49:34.337Z,58.44
2018-09-25T08:52:09.096Z,57.81
2018-09-25T08:54:46.106Z,55.43
2018-09-25T08:57:21.750Z,57.78
2018-09-25T09:02:47.746Z,58.43
2018-09-25T09:05:24.786Z,59.29
2018-09-25T09:08:12.311Z,57.96
2018-09-25T09:10:59.863Z,55.74
2018-09-25T09:13:47.350Z,55.90
2018-09-25T09:16:22.816Z,55.65
2018-09-25T09:18:57.955Z,54.99
2018-09-25T09:21:31.903Z,55.22
2018-09-25T09:24:06.166Z,54.35
2018-09-25T09:26:40.145Z,53.59
2018-09-25T09:29:14.054Z,53.79
2018-09-25T09:31:49.644Z,54.68
2018-09-25T09:34:23.791Z,55.00
2018-09-25T09:36:58.077Z,55.68
2018-09-25T09:39:33.474Z,56.10
2018-09-25T09:42:07.938Z,55.68
2018-09-25T09:44:42.243Z,56.14
2018-09-25T09:47:16.649Z,55.67
2018-09-25T09:49:50.763Z,55.26
2018-09-25T09:52:25.032Z,55.90
2018-09-25T09:54:59.089Z,55.07
2018-09-25T09:57:32.990Z,56.08
2018-09-25T10:00:07.988Z,55.87
2018-09-25T10:02:42.050Z,55.77
2018-09-25T10:05:16.089Z,54.55
2018-09-25T10:07:50.351Z,54.53
2018-09-25T10:10:24.367Z,54.11
2018-09-25T10:12:59.039Z,54.10
2018-09-25T10:15:33.418Z,54.43
2018-09-25T10:18:07.782Z,54.39
2018-09-25T10:20:42.161Z,53.13
2018-09-25T10:23:16.150Z,50.51
2018-09-25T10:25:50.071Z,48.07
2018-09-25T10:28:23.975Z,48.36
2018-09-25T10:30:58.089Z,48.98
2018-09-25T10:33:32.254Z,49.74
2018-09-25T10:36:06.158Z,50.75
2018-09-25T10:38:40.064Z,48.44
2018-09-25T10:41:14.638Z,47.10
2018-09-25T10:43:49.420Z,45.07
2018-09-25T10:46:24.307Z,46.05
2018-09-25T10:48:58.912Z,47.69
2018-09-25T10:51:32.943Z,49.54
2018-09-25T10:54:06.841Z,49.11
2018-09-25T10:56:40.719Z,48.12
2018-09-25T10:59:14.546Z,48.48
2018-09-25T11:01:48.425Z,48.97
2018-09-25T11:04:22.403Z,46.86
2018-09-25T11:06:56.223Z,47.16
2018-09-25T11:09:30.314Z,47.49
2018-09-25T11:12:04.316Z,45.62
2018-09-25T11:14:38.731Z,46.64
2018-09-25T11:17:12.954Z,46.49
2018-09-25T11:19:47.062Z,45.81
2018-09-25T11:22:21.128Z,46.48
2018-09-25T11:24:54.954Z,45.34
2018-09-25T11:27:28.835Z,45.59
2018-09-25T11:30:03.498Z,45.42
2018-09-25T11:32:38.047Z,46.56
2018-09-25T11:35:12.621Z,46.25
2018-09-25T11:37:46.576Z,45.87
2018-09-25T11:40:21.511Z,45.89
2018-09-25T11:42:57.111Z,45.47
2018-09-25T11:45:30.966Z,44.10
2018-09-25T11:48:04.831Z,45.21
2018-09-25T11:50:39.334Z,44.14
2018-09-25T11:53:13.281Z,45.07
2018-09-25T11:55:47.218Z,45.52
2018-09-25T11:58:21.288Z,45.58
2018-09-25T12:00:55.138Z,43.39
2018-09-25T12:03:29.147Z,40.96
2018-09-25T12:06:03.985Z,35.48
2018-09-25T12:08:37.848Z,30.09
2018-09-25T12:11:12.356Z,28.57
2018-09-25T12:13:46.650Z,29.05
2018-09-25T12:16:21.056Z,29.56
2018-09-25T12:18:55.728Z,28.49
2018-09-25T12:21:29.636Z,29.67
2018-09-25T12:24:03.785Z,31.60
2018-09-25T12:26:37.843Z,33.78
2018-09-25T12:29:11.828Z,33.04
2018-09-25T12:31:46.055Z,33.19
2018-09-25T12:34:20.190Z,34.42
2018-09-25T12:36:54.138Z,33.70
2018-09-25T12:39:28.120Z,35.52
2018-09-25T12:42:02.140Z,37.76
2018-09-25T12:44:36.258Z,38.42
2018-09-25T12:47:10.621Z,37.87
2018-09-25T12:49:44.867Z,37.76
2018-09-25T12:52:18.944Z,36.94
2018-09-25T12:54:53.062Z,37.92
2018-09-25T12:57:26.957Z,35.92
2018-09-25T13:00:01.205Z,36.34
2018-09-25T13:02:35.085Z,36.26
2018-09-25T13:05:09.067Z,36.21
2018-09-25T13:07:43.032Z,36.22
2018-09-25T13:10:17.898Z,36.53
2018-09-25T13:12:52.258Z,36.36
2018-09-25T13:15:26.711Z,35.93
2018-09-25T13:18:00.793Z,36.73
2018-09-25T13:20:34.769Z,36.79
2018-09-25T13:23:09.019Z,36.07
2018-09-25T13:25:45.302Z,36.63
2018-09-25T13:28:19.224Z,37.70
2018-09-25T13:30:53.233Z,38.99
2018-09-25T13:33:27.266Z,40.28
2018-09-25T13:36:01.305Z,37.05
2018-09-25T13:38:35.379Z,37.84
2018-09-25T13:41:09.456Z,37.66
2018-09-25T13:43:43.251Z,39.63
2018-09-25T13:46:17.248Z,38.26
2018-09-25T13:48:51.264Z,39.16
2018-09-25T13:51:25.146Z,39.41
2018-09-25T13:53:59.337Z,39.58
2018-09-25T13:56:34.597Z,39.59
2018-09-25T13:59:08.489Z,38.72
2018-09-25T14:01:42.381Z,38.73
2018-09-25T14:04:17.038Z,38.29
2018-09-25T14:06:51.175Z,38.24
2018-09-25T14:09:25.059Z,38.34
2018-09-25T14:11:59.022Z,37.19
2018-09-25T14:14:32.870Z,37.51
2018-09-25T14:17:06.942Z,37.54
2018-09-25T14:19:40.783Z,38.56
2018-09-25T14:22:14.980Z,39.39
2018-09-25T14:24:49.345Z,40.18
2018-09-25T14:27:23.396Z,39.81
2018-09-25T14:29:57.331Z,39.47
2018-09-25T14:32:31.312Z,39.10
2018-09-25T14:35:05.327Z,39.86
2018-09-25T14:37:39.324Z,39.72
2018-09-25T14:40:13.450Z,39.38
2018-09-25T14:42:47.698Z,37.80
2018-09-25T14:45:21.586Z,38.78
2018-09-25T14:47:55.795Z,38.19
2018-09-25T14:50:29.750Z,39.36
2018-09-25T14:53:03.532Z,38.92
2018-09-25T14:55:37.368Z,37.66
2018-09-25T14:58:11.706Z,36.47
2018-09-25T15:00:45.808Z,37.46
2018-09-25T15:03:20.193Z,37.88
2018-09-25T15:05:55.006Z,38.92
2018-09-25T15:08:28.950Z,38.40
2018-09-25T15:11:03.090Z,38.55
2018-09-25T15:13:37.538Z,38.75
2018-09-25T15:16:11.672Z,39.34
2018-09-25T15:18:45.674Z,38.61
2018-09-25T15:21:20.051Z,38.33
2018-09-25T15:23:54.139Z,38.93
2018-09-25T15:26:30.195Z,38.12
2018-09-25T15:29:04.382Z,39.15
2018-09-25T15:31:38.436Z,39.26
2018-09-25T15:34:12.712Z,39.89
2018-09-25T15:36:46.778Z,39.92
2018-09-25T15:39:21.969Z,39.33
2018-09-25T15:41:56.947Z,41.08
2018-09-25T15:44:31.368Z,39.57
2018-09-25T15:47:05.529Z,39.58
2018-09-25T15:49:39.469Z,39.32
2018-09-25T15:52:14.053Z,37.65
2018-09-25T15:54:48.687Z,39.39
2018-09-25T15:57:23.256Z,38.71
2018-09-25T15:59:58.050Z,39.06
2018-09-25T16:02:32.160Z,38.44
2018-09-25T16:05:06.361Z,39.17
2018-09-25T16:07:40.385Z,40.41
2018-09-25T16:10:14.399Z,40.86
2018-09-25T16:13:05.963Z,41.59
2018-09-25T16:15:44.755Z,42.18
2018-09-25T16:18:19.986Z,41.37
2018-09-25T16:20:54.395Z,41.95
2018-09-25T16:23:28.746Z,42.92
2018-09-25T16:26:08.596Z,43.34
2018-09-25T16:28:55.697Z,43.36
2018-09-25T16:31:30.010Z,43.41
2018-09-25T16:34:04.157Z,44.13
2018-09-25T16:36:38.465Z,44.18
2018-09-25T16:39:15.067Z,44.94
2018-09-25T16:41:49.775Z,44.76
2018-09-25T16:44:23.921Z,45.06
2018-09-25T16:47:00.315Z,45.14
2018-09-25T16:49:34.683Z,45.89
2018-09-25T16:52:08.959Z,46.46
2018-09-25T16:54:43.299Z,45.77
2018-09-25T16:57:17.277Z,46.53
2018-09-25T16:59:52.106Z,46.69
2018-09-25T17:02:26.257Z,46.79
2018-09-25T17:05:00.896Z,47.61
2018-09-25T17:07:35.027Z,47.74
2018-09-25T17:10:09.209Z,47.94
2018-09-25T17:12:43.235Z,48.29
2018-09-25T17:15:17.512Z,48.47
2018-09-25T17:17:51.771Z,48.53
2018-09-25T17:20:25.877Z,48.51
2018-09-25T17:23:00.050Z,48.37
2018-09-25T17:25:34.482Z,48.67
2018-09-25T17:28:08.498Z,49.14
2018-09-25T17:30:42.596Z,49.56
2018-09-25T17:33:16.671Z,49.12
2018-09-25T17:35:51.195Z,50.09
2018-09-25T17:38:25.430Z,50.44
2018-09-25T17:40:59.328Z,51.12
2018-09-25T17:43:33.417Z,50.95
2018-09-25T17:46:07.351Z,51.75
2018-09-25T17:48:41.292Z,50.97
2018-09-25T17:51:15.314Z,51.72
2018-09-25T17:53:49.628Z,52.02
2018-09-25T17:56:23.689Z,51.71
2018-09-25T17:58:57.540Z,52.27
2018-09-25T18:01:31.755Z,52.45
2018-09-25T18:04:05.771Z,53.15
2018-09-25T18:06:39.725Z,53.12
2018-09-25T18:09:15.152Z,53.10
2018-09-25T18:11:49.072Z,53.02
2018-09-25T18:14:23.153Z,53.35
2018-09-25T18:16:57.149Z,53.19
2018-09-25T18:19:31.368Z,53.22
2018-09-25T18:22:05.291Z,53.81
2018-09-25T18:24:39.330Z,53.43
2018-09-25T18:27:13.395Z,53.56
2018-09-25T18:29:47.302Z,53.02
2018-09-25T18:32:21.160Z,53.47
2018-09-25T18:34:55.225Z,52.91
2018-09-25T18:37:29.109Z,53.27
2018-09-25T18:40:03.389Z,52.52
2018-09-25T18:42:37.832Z,52.69
2018-09-25T18:45:12.016Z,53.46
2018-09-25T18:47:46.287Z,53.83
2018-09-25T18:50:20.518Z,53.86
2018-09-25T18:52:54.429Z,54.62
2018-09-25T18:55:28.951Z,54.61
2018-09-25T18:58:03.131Z,54.74
2018-09-25T19:00:36.983Z,55.35
2018-09-25T19:03:11.225Z,55.93
2018-09-25T19:05:45.278Z,55.86
2018-09-25T19:08:19.940Z,56.40
2018-09-25T19:10:53.810Z,56.76
2018-09-25T19:13:27.823Z,56.65
2018-09-25T19:16:02.608Z,57.39
2018-09-25T19:18:36.594Z,56.38
2018-09-25T19:21:10.943Z,57.58
2018-09-25T19:23:45.243Z,58.26
2018-09-25T19:26:19.266Z,57.66
2018-09-25T19:28:53.354Z,57.05
2018-09-25T19:31:27.664Z,57.41
2018-09-25T19:34:01.698Z,56.97
2018-09-25T19:36:36.335Z,57.27
2018-09-25T19:39:14.013Z,57.64
2018-09-25T19:41:52.772Z,57.27
2018-09-25T19:44:33.531Z,57.42
2018-09-25T19:47:10.696Z,57.75
2018-09-25T19:49:45.428Z,57.46
2018-09-25T19:52:20.163Z,57.63
2018-09-25T19:54:54.421Z,58.24
2018-09-25T19:57:29.306Z,58.04
2018-09-25T20:00:03.722Z,58.53
2018-09-25T20:02:42.505Z,57.55
2018-09-25T20:05:16.570Z,57.81
2018-09-25T20:07:51.793Z,57.88
2018-09-25T20:10:27.075Z,58.42
2018-09-25T20:13:02.925Z,58.47
2018-09-25T20:15:37.135Z,58.50
2018-09-25T20:18:11.711Z,58.96
2018-09-25T20:20:47.811Z,58.77
2018-09-25T20:23:21.748Z,58.39
2018-09-25T20:25:56.118Z,59.35
2018-09-25T20:28:30.014Z,59.16
2018-09-25T20:31:04.785Z,59.39
2018-09-25T20:33:38.954Z,59.80
2018-09-25T20:36:13.120Z,59.72
2018-09-25T20:38:47.387Z,60.26
2018-09-25T20:41:21.447Z,60.06
2018-09-25T20:43:55.642Z,60.48
2018-09-25T20:46:29.564Z,60.66
2018-09-25T20:49:04.147Z,60.47
2018-09-25T20:51:38.031Z,60.38
2018-09-25T20:54:12.118Z,60.78
2018-09-25T20:56:47.148Z,61.25
2018-09-25T20:59:21.044Z,61.04
2018-09-25T21:01:55.470Z,61.10
2018-09-25T21:04:29.900Z,61.70
2018-09-25T21:07:04.287Z,61.79
2018-09-25T21:09:38.288Z,62.07
2018-09-25T21:12:12.535Z,61.85
2018-09-25T21:14:46.534Z,62.17
2018-09-25T21:17:21.544Z,61.78
2018-09-25T21:19:55.645Z,62.17
2018-09-25T21:22:29.554Z,62.05
2018-09-25T21:25:03.855Z,62.10
2018-09-25T21:27:38.062Z,61.99
2018-09-25T21:30:11.911Z,62.17
2018-09-25T21:32:45.982Z,62.32
2018-09-25T21:35:20.705Z,62.13
2018-09-25T21:37:54.633Z,62.48
2018-09-25T21:40:29.304Z,62.36
2018-09-25T21:43:03.196Z,61.75
2018-09-25T21:45:37.172Z,61.41
2018-09-25T21:48:12.438Z,61.31
2018-09-25T21:50:46.773Z,61.96
2018-09-25T21:53:21.801Z,61.24
2018-09-25T21:55:56.088Z,61.11
2018-09-25T21:58:31.332Z,61.30
2018-09-25T22:01:05.548Z,61.75
2018-09-25T22:03:39.842Z,61.13
2018-09-25T22:06:14.219Z,61.54
2018-09-25T22:08:48.022Z,61.12
2018-09-25T22:11:22.726Z,61.53
2018-09-25T22:13:56.589Z,62.40
2018-09-25T22:16:30.538Z,61.38
2018-09-25T22:19:04.575Z,62.10
2018-09-25T22:21:38.757Z,62.20
2018-09-25T22:24:13.838Z,62.09
2018-09-25T22:26:48.123Z,61.22
2018-09-25T22:29:22.235Z,61.80
2018-09-25T22:31:56.196Z,61.80
2018-09-25T22:34:30.584Z,60.50
2018-09-25T22:37:06.104Z,61.39
2018-09-25T22:39:42.088Z,61.53
2018-09-25T22:42:17.627Z,61.27
2018-09-25T22:44:53.488Z,61.07
2018-09-25T22:47:27.666Z,61.12
2018-09-25T22:50:02.092Z,61.00
2018-09-25T22:52:35.970Z,60.64
2018-09-25T22:55:11.475Z,61.85
2018-09-25T22:57:45.307Z,61.79
2018-09-25T23:00:19.255Z,62.34
2018-09-25T23:02:53.787Z,62.30
2018-09-25T23:05:28.283Z,62.54
2018-09-25T23:08:02.331Z,62.76
2018-09-25T23:10:36.438Z,63.10
2018-09-25T23:13:10.852Z,63.65
2018-09-25T23:15:45.556Z,62.75
2018-09-25T23:18:19.277Z,63.71
2018-09-25T23:20:53.207Z,63.29
2018-09-25T23:23:27.252Z,62.72
2018-09-25T23:26:01.300Z,63.06
2018-09-25T23:28:35.439Z,62.27
2018-09-25T23:31:10.467Z,62.85
2018-09-25T23:33:44.380Z,63.44
2018-09-25T23:36:18.533Z,63.52
2018-09-25T23:38:52.637Z,63.41
2018-09-25T23:41:28.758Z,63.54
2018-09-25T23:44:03.014Z,63.52
2018-09-25T23:46:39.333Z,63.60
2018-09-25T23:49:14.466Z,63.33
2018-09-25T23:52:14.030Z,63.60
2018-09-25T23:54:48.163Z,63.50
2018-09-25T23:57:23.989Z,63.83
